createdAt,value
2022-12-20T00:02:14.549Z,101322.66
2022-12-20T00:05:32.167Z,101318.19
2022-12-20T00:07:54.566Z,101320.88
2022-12-20T00:10:51.895Z,101315.50
2022-12-20T00:13:26.274Z,101310.16
2022-12-20T00:16:10.348Z,101300.34
2022-12-20T00:18:39.413Z,101297.69
2022-12-20T00:21:09.936Z,101295.00
2022-12-20T00:23:51.724Z,101293.19
2022-12-20T00:26:39.869Z,101286.97
2022-12-20T00:29:08.701Z,101286.97
2022-12-20T00:31:41.633Z,101282.50
2022-12-20T00:34:12.168Z,101280.75
2022-12-20T00:36:41.538Z,101279.81
2022-12-20T00:39:09.674Z,101285.16
2022-12-20T00:41:39.614Z,101271.81
2022-12-20T00:44:16.282Z,101271.81
2022-12-20T00:46:49.587Z,101267.34
2022-12-20T00:49:17.932Z,101278.03
2022-12-20T00:51:47.835Z,101285.19
2022-12-20T00:54:23.277Z,101283.38
2022-12-20T00:56:56.662Z,101269.16
2022-12-20T00:59:26.850Z,101260.25
2022-12-20T01:02:08.044Z,101261.09
2022-12-20T01:04:57.722Z,101269.13
2022-12-20T01:07:37.645Z,101272.72
2022-12-20T01:10:27.945Z,101256.66
2022-12-20T01:13:50.055Z,101256.66
2022-12-20T01:17:06.388Z,101264.66
2022-12-20T01:19:57.285Z,101257.50
2022-12-20T01:22:37.416Z,101266.44
2022-12-20T01:25:40.469Z,101266.44
2022-12-20T01:28:16.834Z,101266.41
2022-12-20T01:31:26.017Z,101259.31
2022-12-20T01:38:07.617Z,101261.09
2022-12-20T01:41:15.986Z,101253.06
2022-12-20T01:46:21.871Z,101247.69
2022-12-20T01:56:59.202Z,101240.53
2022-12-20T01:59:56.019Z,101235.19
2022-12-20T02:02:40.676Z,101242.34
2022-12-20T02:05:18.639Z,101239.66
2022-12-20T02:08:27.841Z,101237.84
2022-12-20T02:11:26.138Z,101222.69
2022-12-20T02:15:55.117Z,101228.03
2022-12-20T02:23:53.249Z,101228.03
2022-12-20T02:28:12.196Z,101225.34
2022-12-20T02:30:36.135Z,101228.00
2022-12-20T02:33:12.532Z,101239.59
2022-12-20T03:49:11.808Z,101187.19
2022-12-20T03:51:07.660Z,101201.47
2022-12-20T05:05:59.027Z,101175.69
2022-12-20T09:13:46.311Z,101052.00
2022-12-20T09:16:18.572Z,101046.63
2022-12-20T09:18:50.225Z,101057.31
2022-12-20T09:21:18.487Z,101049.31
2022-12-20T09:23:47.100Z,101045.69
2022-12-20T09:26:16.980Z,101042.06
2022-12-20T09:28:47.222Z,101051.84
2022-12-20T09:31:16.949Z,101052.75
2022-12-20T09:33:45.527Z,101057.19
2022-12-20T09:36:15.601Z,101058.06
2022-12-20T09:38:43.520Z,101045.53
2022-12-20T09:41:24.098Z,101045.47
2022-12-20T09:43:54.063Z,101054.38
2022-12-20T09:46:22.788Z,101048.16
2022-12-20T09:48:54.169Z,101049.06
2022-12-20T09:51:40.399Z,101035.69
2022-12-20T09:54:19.364Z,101036.59
2022-12-20T09:56:55.823Z,101034.81
2022-12-20T09:59:25.546Z,101040.19
2022-12-20T10:01:54.030Z,101042.88
2022-12-20T10:04:24.500Z,101041.97
2022-12-20T10:07:11.380Z,101032.16
2022-12-20T10:10:00.884Z,101044.66
2022-12-20T10:12:40.480Z,101048.22
2022-12-20T10:15:21.355Z,101041.06
2022-12-20T10:18:04.943Z,101026.78
2022-12-20T10:20:46.142Z,101038.38
2022-12-20T10:23:26.682Z,101022.31
2022-12-20T10:26:03.119Z,101023.13
2022-12-20T10:28:32.979Z,101011.50
2022-12-20T10:31:03.845Z,101005.22
2022-12-20T10:33:33.169Z,101006.97
2022-12-20T10:36:20.743Z,101001.63
2022-12-20T10:38:50.768Z,100995.34
2022-12-20T10:41:23.556Z,100999.81
2022-12-20T10:43:57.312Z,101002.44
2022-12-20T10:46:37.164Z,100991.69
2022-12-20T10:49:28.149Z,100976.56
2022-12-20T10:51:57.862Z,100983.66
2022-12-20T10:54:31.463Z,100976.47
2022-12-20T10:57:01.987Z,100975.53
2022-12-20T10:59:38.715Z,100971.03
2022-12-20T11:02:30.288Z,100974.56
2022-12-20T11:05:09.764Z,100981.69
2022-12-20T11:07:41.323Z,100968.31
2022-12-20T11:10:21.513Z,100968.28
2022-12-20T11:12:54.998Z,100953.97
2022-12-20T11:15:34.461Z,100953.97
2022-12-20T11:18:07.931Z,100957.50
2022-12-20T11:20:43.969Z,100944.13
2022-12-20T11:23:24.999Z,100950.38
2022-12-20T11:26:15.942Z,100951.25
2022-12-20T11:29:04.717Z,100948.59
2022-12-20T11:32:19.511Z,100953.91
2022-12-20T11:35:00.434Z,100954.78
2022-12-20T11:40:48.530Z,100959.28
2022-12-20T11:43:30.829Z,100946.78
2022-12-20T11:46:17.486Z,100951.22
2022-12-20T11:49:11.722Z,100942.31
2022-12-20T11:51:47.260Z,100939.66
2022-12-20T11:54:23.226Z,100938.75
2022-12-20T11:56:53.207Z,100928.84
2022-12-20T11:59:31.342Z,100919.00
2022-12-20T12:02:06.008Z,100924.28
2022-12-20T12:04:38.768Z,100925.13
2022-12-20T12:07:13.394Z,100905.38
2022-12-20T12:09:49.230Z,100918.78
2022-12-20T12:12:23.815Z,100909.84
2022-12-20T12:14:57.923Z,100917.88
2022-12-20T12:17:36.335Z,100922.31
2022-12-20T12:20:21.470Z,100905.38
2022-12-20T12:22:56.235Z,100910.69
2022-12-20T12:25:24.263Z,100911.56
2022-12-20T12:27:54.588Z,100907.09
2022-12-20T12:30:22.771Z,100908.88
2022-12-20T12:32:56.390Z,100907.09
2022-12-20T12:35:48.995Z,100900.81
2022-12-20T12:38:37.724Z,100900.81
2022-12-20T12:41:45.421Z,100900.81
2022-12-20T12:44:35.742Z,100899.03
2022-12-20T12:47:13.001Z,100900.75
2022-12-20T12:49:42.024Z,100912.34
2022-12-20T12:52:33.861Z,100900.69
2022-12-20T12:55:25.974Z,100904.25
2022-12-20T12:57:57.955Z,100903.22
2022-12-20T13:00:50.945Z,100906.88
2022-12-20T13:03:39.022Z,100904.34
2022-12-20T13:06:46.057Z,100920.53
2022-12-20T13:09:23.719Z,100914.47
2022-12-20T13:12:00.427Z,100915.47
2022-12-20T13:14:51.218Z,100914.69
2022-12-20T13:17:49.232Z,100904.94
2022-12-20T13:23:14.952Z,100908.56
2022-12-20T13:25:45.204Z,100898.69
2022-12-20T13:28:46.649Z,100902.25
2022-12-20T13:31:34.764Z,100902.31
2022-12-20T13:34:04.096Z,100900.56
2022-12-20T13:36:35.070Z,100899.75
2022-12-20T13:39:06.103Z,100907.78
2022-12-20T13:41:45.177Z,100898.88
2022-12-20T13:44:37.897Z,100905.19
2022-12-20T13:47:24.050Z,100907.03
2022-12-20T13:49:52.666Z,100916.84
2022-12-20T13:52:27.043Z,100909.81
2022-12-20T13:54:57.165Z,100909.91
2022-12-20T13:57:30.956Z,100912.69
2022-12-20T14:00:07.820Z,100915.38
2022-12-20T14:02:41.608Z,100915.41
2022-12-20T14:05:18.245Z,100913.63
2022-12-20T14:07:49.054Z,100913.59
2022-12-20T14:10:21.222Z,100910.91
2022-12-20T14:12:53.731Z,100908.25
2022-12-20T14:15:32.128Z,100913.56
2022-12-20T14:18:09.821Z,100917.09
2022-12-20T14:20:39.041Z,100918.88
2022-12-20T14:23:12.424Z,100913.50
2022-12-20T14:25:45.457Z,100908.16
2022-12-20T14:28:32.350Z,100911.69
2022-12-20T14:31:03.567Z,100908.16
2022-12-20T14:33:36.432Z,100909.91
2022-12-20T14:36:19.169Z,100906.31
2022-12-20T14:38:48.951Z,100888.53
2022-12-20T14:41:35.312Z,100895.66
2022-12-20T14:44:14.749Z,100896.56
2022-12-20T14:46:50.085Z,100900.13
2022-12-20T14:49:24.078Z,100901.00
2022-12-20T14:52:06.618Z,100895.63
2022-12-20T14:57:26.179Z,100894.72
2022-12-20T15:00:23.099Z,100884.00
2022-12-20T15:03:00.773Z,100870.66
2022-12-20T15:05:51.798Z,100870.69
2022-12-20T15:08:23.235Z,100878.72
2022-12-20T15:10:55.145Z,100876.03
2022-12-20T15:13:26.286Z,100871.63
2022-12-20T15:15:54.250Z,100869.81
2022-12-20T15:18:23.837Z,100861.81
2022-12-20T15:21:01.855Z,100858.25
2022-12-20T15:23:30.138Z,100863.56
2022-12-20T15:25:58.087Z,100864.41
2022-12-20T15:28:27.837Z,100858.19
2022-12-20T15:30:56.641Z,100868.00
2022-12-20T15:33:29.116Z,100868.91
2022-12-20T15:35:57.688Z,100869.78
2022-12-20T15:39:03.354Z,100868.00
2022-12-20T15:41:21.001Z,100859.97
2022-12-20T15:43:51.678Z,100859.97
2022-12-20T15:46:19.950Z,100865.31
2022-12-20T15:48:49.708Z,100863.56
2022-12-20T15:51:28.737Z,100854.63
2022-12-20T15:53:56.748Z,100855.56
2022-12-20T15:56:26.475Z,100853.81
2022-12-20T15:58:55.186Z,100851.16
2022-12-20T16:01:27.421Z,100859.22
2022-12-20T16:03:57.068Z,100855.66
2022-12-20T16:06:25.324Z,100855.69
2022-12-20T16:08:54.418Z,100855.72
2022-12-20T16:11:27.964Z,100851.25
2022-12-20T16:13:56.476Z,100855.78
2022-12-20T16:16:26.306Z,100854.88
2022-12-20T16:18:54.451Z,100858.47
2022-12-20T16:21:25.985Z,100855.78
2022-12-20T16:23:55.220Z,100854.91
2022-12-20T16:26:24.684Z,100860.25
2022-12-20T16:28:55.113Z,100861.13
2022-12-20T16:31:26.204Z,100843.28
2022-12-20T16:33:56.365Z,100852.22
2022-12-20T16:36:26.635Z,100853.09
2022-12-20T16:38:55.159Z,100854.00
2022-12-20T16:41:27.543Z,100860.22
2022-12-20T16:43:56.820Z,100854.00
2022-12-20T16:46:27.545Z,100843.28
2022-12-20T16:48:57.336Z,100845.06
2022-12-20T16:51:28.513Z,100854.88
2022-12-20T16:56:47.584Z,100851.25
2022-12-20T16:59:19.785Z,100847.72
2022-12-20T17:01:51.073Z,100847.72
2022-12-20T17:04:20.414Z,100854.84
2022-12-20T17:06:50.263Z,100848.56
2022-12-20T17:12:10.908Z,100851.19
2022-12-20T17:14:38.936Z,100853.00
2022-12-20T17:17:07.965Z,100853.88
2022-12-20T17:19:36.089Z,100852.09
2022-12-20T17:22:23.968Z,100855.66
2022-12-20T17:24:52.088Z,100848.53
2022-12-20T17:27:20.332Z,100853.84
2022-12-20T17:29:48.510Z,100852.88
2022-12-20T17:32:22.089Z,100849.41
2022-12-20T17:34:50.453Z,100843.16
2022-12-20T17:37:21.220Z,100841.38
2022-12-20T17:39:49.622Z,100842.25
2022-12-20T17:42:18.071Z,100836.94
2022-12-20T17:44:46.875Z,100832.47
2022-12-20T17:47:17.111Z,100834.25
2022-12-20T17:49:45.161Z,100840.50
2022-12-20T17:52:15.427Z,100834.25
2022-12-20T17:54:44.977Z,100832.47
2022-12-20T17:57:15.721Z,100831.56
2022-12-20T17:59:44.317Z,100835.13
2022-12-20T18:02:22.352Z,100835.09
2022-12-20T18:04:50.786Z,100845.81
2022-12-20T18:07:18.946Z,100845.81
2022-12-20T18:09:49.928Z,100844.03
2022-12-20T18:12:18.202Z,100851.22
2022-12-20T18:14:46.368Z,100845.06
2022-12-20T18:17:14.721Z,100837.06
2022-12-20T18:19:43.987Z,100842.44
2022-12-20T18:22:12.527Z,100842.44
2022-12-20T18:24:40.634Z,100832.66
2022-12-20T18:27:09.943Z,100830.84
2022-12-20T18:29:37.901Z,100837.06
2022-12-20T18:32:06.832Z,100835.25
2022-12-20T18:34:34.928Z,100840.56
2022-12-20T18:37:05.730Z,100844.16
2022-12-20T18:39:33.968Z,100840.59
2022-12-20T18:42:02.060Z,100833.47
2022-12-20T18:44:35.678Z,100833.53
2022-12-20T18:47:05.763Z,100834.41
2022-12-20T18:49:34.675Z,100838.03
2022-12-20T18:52:03.030Z,100822.00
2022-12-20T18:54:31.902Z,100827.31
2022-12-20T18:57:00.102Z,100825.53
2022-12-20T18:59:28.270Z,100834.47
2022-12-20T19:01:58.329Z,100832.69
2022-12-20T19:04:29.569Z,100843.34
2022-12-20T19:06:57.636Z,100836.19
2022-12-20T19:09:35.165Z,100834.41
2022-12-20T19:12:05.649Z,100835.31
2022-12-20T19:14:33.809Z,100837.09
2022-12-20T19:17:04.478Z,100834.44
2022-12-20T19:19:35.967Z,100844.25
2022-12-20T19:22:04.839Z,100827.34
2022-12-20T19:24:32.951Z,100819.31
2022-12-20T19:27:01.008Z,100831.75
2022-12-20T19:29:29.161Z,100825.59
2022-12-20T19:31:57.225Z,100822.84
2022-12-20T19:34:26.652Z,100824.63
2022-12-20T19:36:54.652Z,100829.03
2022-12-20T19:39:23.752Z,100830.81
2022-12-20T19:42:22.493Z,100831.69
2022-12-20T19:44:43.948Z,100833.53
2022-12-20T19:47:13.466Z,100827.31
2022-12-20T19:49:43.162Z,100833.66
2022-12-20T19:52:11.045Z,100825.63
2022-12-20T19:54:39.862Z,100822.03
2022-12-20T19:57:07.952Z,100835.44
2022-12-20T19:59:36.132Z,100823.88
2022-12-20T20:02:04.451Z,100833.66
2022-12-20T20:04:32.909Z,100830.97
2022-12-20T20:07:02.399Z,100844.38
2022-12-20T20:09:30.342Z,100840.78
2022-12-20T20:11:58.103Z,100836.34
2022-12-20T20:14:26.027Z,100831.91
2022-12-20T20:16:54.034Z,100838.13
2022-12-20T20:19:22.207Z,100838.19
2022-12-20T20:21:50.698Z,100838.22
2022-12-20T20:24:20.962Z,100845.31
2022-12-20T20:26:48.931Z,100832.88
2022-12-20T20:29:19.298Z,100832.88
2022-12-20T20:31:49.248Z,100838.22
2022-12-20T20:34:17.121Z,100836.44
2022-12-20T20:36:47.478Z,100834.63
2022-12-20T20:39:15.302Z,100830.22
2022-12-20T20:41:47.916Z,100829.31
2022-12-20T20:44:15.757Z,100828.41
2022-12-20T20:46:46.089Z,100834.66
2022-12-20T20:49:14.042Z,100831.09
2022-12-20T20:51:41.862Z,100823.97
2022-12-20T20:54:11.787Z,100823.09
2022-12-20T20:56:39.690Z,100827.53
2022-12-20T20:59:15.168Z,100826.59
2022-12-20T21:01:45.521Z,100819.44
2022-12-20T21:04:13.518Z,100809.63
2022-12-20T21:06:42.259Z,100815.91
2022-12-20T21:09:11.530Z,100822.16
2022-12-20T21:11:40.699Z,100803.47
2022-12-20T21:14:11.177Z,100814.19
2022-12-20T21:16:41.226Z,100813.28
2022-12-20T21:19:10.916Z,100809.75
2022-12-20T21:21:38.837Z,100816.00
2022-12-20T21:24:07.650Z,100813.31
2022-12-20T21:30:47.781Z,100809.78
2022-12-20T21:33:16.010Z,100816.00
2022-12-20T21:35:48.289Z,100817.78
2022-12-20T21:38:20.354Z,100821.34
2022-12-20T21:40:51.997Z,100816.88
2022-12-20T21:43:20.390Z,100815.09
2022-12-20T21:45:53.399Z,100821.34
2022-12-20T21:48:21.765Z,100813.34
2022-12-20T21:50:59.648Z,100823.16
2022-12-20T21:53:27.502Z,100822.25
2022-12-20T21:55:58.992Z,100817.81
2022-12-20T21:58:28.135Z,100817.84
2022-12-20T22:00:58.259Z,100820.50
2022-12-20T22:03:27.622Z,100819.59
2022-12-20T22:06:05.117Z,100820.50
2022-12-20T22:08:34.025Z,100820.50
2022-12-20T22:11:03.497Z,100822.25
2022-12-20T22:13:35.669Z,100820.47
2022-12-20T22:16:11.602Z,100825.84
2022-12-20T22:18:40.283Z,100829.41
2022-12-20T22:21:10.168Z,100829.44
2022-12-20T22:23:41.250Z,100812.47
2022-12-20T22:26:10.661Z,100811.59
2022-12-20T22:28:39.329Z,100822.28
2022-12-20T22:31:10.500Z,100821.41
2022-12-20T22:33:39.527Z,100806.22
2022-12-20T22:36:08.661Z,100814.25
2022-12-20T22:38:36.672Z,100812.47
2022-12-20T22:41:09.578Z,100818.72
2022-12-20T22:43:38.673Z,100810.69
2022-12-20T22:46:07.978Z,100823.16
2022-12-20T22:48:37.452Z,100820.50
2022-12-20T22:51:07.942Z,100819.59
2022-12-20T22:53:36.539Z,100824.06
2022-12-20T22:56:05.391Z,100823.16
2022-12-20T22:58:33.776Z,100824.94
2022-12-20T23:01:04.171Z,100836.56
2022-12-20T23:03:33.611Z,100826.72
2022-12-20T23:06:05.064Z,100833.84
2022-12-20T23:08:34.523Z,100840.09
2022-12-20T23:11:20.329Z,100835.63
2022-12-20T23:14:05.590Z,100834.75
2022-12-20T23:16:33.632Z,100831.19
2022-12-20T23:19:03.407Z,100835.66
2022-12-20T23:21:50.456Z,100832.09
2022-12-20T23:24:18.459Z,100831.19
2022-12-20T23:26:46.590Z,100832.94
2022-12-20T23:29:14.747Z,100840.97
2022-12-20T23:31:42.697Z,100835.63
2022-12-20T23:34:10.682Z,100842.78
2022-12-20T23:36:40.175Z,100841.00
2022-12-20T23:39:08.786Z,100834.78
2022-12-20T23:41:36.943Z,100837.41
2022-12-20T23:44:06.105Z,100843.66
2022-12-20T23:46:34.429Z,100851.66
2022-12-20T23:49:02.356Z,100846.28
2022-12-20T23:51:30.367Z,100843.63
2022-12-20T23:53:59.839Z,100847.22
2022-12-20T23:56:30.126Z,100848.06
2022-12-20T23:58:58.007Z,100846.31
